createdAt,value
2023-03-06T00:00:31.263Z,3.80
2023-03-06T00:02:58.148Z,3.80
2023-03-06T00:10:22.163Z,3.80
2023-03-06T00:12:52.434Z,3.80
2023-03-06T00:15:19.403Z,3.90
2023-03-06T00:22:41.035Z,4.10
2023-03-06T00:25:08.924Z,4.00
2023-03-06T00:37:25.078Z,4.00
2023-03-06T00:42:19.595Z,4.00
2023-03-06T00:44:46.296Z,4.00
2023-03-06T00:47:13.613Z,4.00
2023-03-06T00:52:07.268Z,4.00
2023-03-06T01:01:55.345Z,4.00
2023-03-06T01:06:49.498Z,4.10
2023-03-06T01:09:16.346Z,4.00
2023-03-06T01:14:11.184Z,4.10
2023-03-06T01:16:37.881Z,4.10
2023-03-06T01:21:31.743Z,4.10
2023-03-06T01:28:52.728Z,3.90
2023-03-06T01:38:41.215Z,4.10
2023-03-06T01:43:37.869Z,4.00
2023-03-06T01:46:29.155Z,4.10
2023-03-06T01:49:00.727Z,4.10
2023-03-06T01:51:32.995Z,4.00
2023-03-06T01:54:04.011Z,4.00
2023-03-06T01:58:58.728Z,4.10
2023-03-06T02:01:26.075Z,4.00
2023-03-06T02:08:51.044Z,4.10
2023-03-06T02:11:21.075Z,4.10
2023-03-06T02:13:49.461Z,4.10
2023-03-06T02:16:26.358Z,4.20
2023-03-06T02:18:54.006Z,4.10
2023-03-06T02:21:27.144Z,4.10
2023-03-06T02:26:22.258Z,4.10
2023-03-06T02:31:28.554Z,4.10
2023-03-06T02:34:14.247Z,4.10
2023-03-06T02:36:53.704Z,4.20
2023-03-06T02:39:24.122Z,4.10
2023-03-06T02:44:21.003Z,4.20
2023-03-06T02:59:03.098Z,4.20
2023-03-06T03:03:57.423Z,4.30
2023-03-06T03:13:45.567Z,4.20
2023-03-06T03:16:17.532Z,4.20
2023-03-06T03:26:17.252Z,4.20
2023-03-06T03:41:11.758Z,4.30
2023-03-06T03:51:08.998Z,4.30
2023-03-06T03:53:39.486Z,4.30
2023-03-06T03:58:41.702Z,4.20
2023-03-06T04:13:26.829Z,4.30
2023-03-06T04:15:55.308Z,3.60
2023-03-06T04:18:23.636Z,4.20
2023-03-06T04:20:52.412Z,4.10
2023-03-06T04:28:14.611Z,4.10
2023-03-06T04:40:36.546Z,3.70
2023-03-06T04:43:04.560Z,4.30
2023-03-06T04:47:59.118Z,4.40
2023-03-06T04:50:28.237Z,4.40
2023-03-06T04:52:54.905Z,4.40
2023-03-06T05:00:19.301Z,4.40
2023-03-06T05:05:13.979Z,4.30
2023-03-06T05:07:40.993Z,4.20
2023-03-06T05:10:11.506Z,4.20
2023-03-06T05:15:07.415Z,4.30
2023-03-06T05:20:01.242Z,4.30
2023-03-06T05:22:27.841Z,4.30
2023-03-06T05:32:16.814Z,4.10
2023-03-06T05:44:33.544Z,4.00
2023-03-06T05:47:00.362Z,4.00
2023-03-06T05:49:30.996Z,3.90
2023-03-06T06:06:41.184Z,4.00
2023-03-06T06:09:07.826Z,4.00
2023-03-06T06:16:28.582Z,4.00
2023-03-06T06:26:16.350Z,3.80
2023-03-06T06:31:12.029Z,3.70
2023-03-06T06:33:40.469Z,3.70
2023-03-06T06:36:21.467Z,3.70
2023-03-06T06:38:49.004Z,3.80
2023-03-06T06:44:08.616Z,3.70
2023-03-06T07:04:13.564Z,3.70
2023-03-06T07:09:07.465Z,3.70
2023-03-06T07:16:28.583Z,3.80
2023-03-06T07:31:23.833Z,4.00
2023-03-06T07:33:51.727Z,4.00
2023-03-06T07:41:13.818Z,3.90
2023-03-06T07:43:41.723Z,4.00
2023-03-06T07:46:09.310Z,4.00
2023-03-06T07:48:37.602Z,4.00
2023-03-06T07:51:15.909Z,4.00
2023-03-06T07:58:40.665Z,4.00
2023-03-06T08:01:09.709Z,4.00
2023-03-06T08:06:13.469Z,4.10
2023-03-06T08:08:42.118Z,4.00
2023-03-06T08:11:10.827Z,4.00
2023-03-06T08:13:38.206Z,4.00
2023-03-06T08:16:05.809Z,4.10
2023-03-06T08:18:32.554Z,4.10
2023-03-06T08:21:04.586Z,4.10
2023-03-06T08:23:31.948Z,4.10
2023-03-06T08:25:59.997Z,4.10
2023-03-06T08:28:26.855Z,4.10
2023-03-06T08:35:47.881Z,4.00
2023-03-06T08:43:12.333Z,4.10
2023-03-06T08:50:33.983Z,4.10
2023-03-06T08:57:54.935Z,4.10
2023-03-06T09:10:17.761Z,4.00
2023-03-06T09:15:19.026Z,3.90
2023-03-06T09:17:45.822Z,3.90
2023-03-06T09:22:42.270Z,3.90
2023-03-06T09:25:11.057Z,3.90
2023-03-06T09:42:23.413Z,3.80
2023-03-06T09:44:59.039Z,3.80
2023-03-06T09:47:41.688Z,3.80
2023-03-06T09:50:11.320Z,3.90
2023-03-06T09:53:08.848Z,3.70
2023-03-06T09:55:40.943Z,3.90
2023-03-06T09:58:16.645Z,3.90
2023-03-06T10:01:13.959Z,3.90
2023-03-06T10:03:52.619Z,4.00
2023-03-06T10:06:32.953Z,4.00
2023-03-06T10:09:13.064Z,4.00
2023-03-06T10:11:55.587Z,4.00
2023-03-06T10:14:42.680Z,3.90
2023-03-06T10:17:17.698Z,4.00
2023-03-06T10:22:46.072Z,4.10
2023-03-06T10:25:33.049Z,4.10
2023-03-06T10:30:52.716Z,4.10
2023-03-06T10:33:37.640Z,4.10
2023-03-06T10:41:10.406Z,4.20
2023-03-06T10:43:38.598Z,4.20
2023-03-06T10:46:07.771Z,4.30
2023-03-06T10:48:36.885Z,4.30
2023-03-06T10:51:20.029Z,4.30
2023-03-06T10:53:54.375Z,4.30
2023-03-06T10:56:36.411Z,4.30
2023-03-06T10:59:17.143Z,4.10
2023-03-06T11:01:49.302Z,4.20
2023-03-06T11:04:29.263Z,4.20
2023-03-06T11:07:14.560Z,4.10
2023-03-06T11:09:58.114Z,4.10
2023-03-06T11:12:27.071Z,4.10
2023-03-06T11:15:21.019Z,4.20
2023-03-06T11:17:59.377Z,4.10
2023-03-06T11:20:51.438Z,4.10
2023-03-06T11:23:39.269Z,4.10
2023-03-06T11:26:17.944Z,4.10
2023-03-06T11:29:26.333Z,4.50
2023-03-06T11:32:00.290Z,4.20
2023-03-06T11:34:54.548Z,4.30
2023-03-06T11:37:33.893Z,4.30
2023-03-06T11:40:17.503Z,4.30
2023-03-06T11:43:07.238Z,4.30
2023-03-06T11:45:42.285Z,4.30
2023-03-06T11:50:41.198Z,4.20
2023-03-06T11:53:14.676Z,4.30
2023-03-06T11:56:00.373Z,4.40
2023-03-06T11:58:53.537Z,4.60
2023-03-06T12:01:38.782Z,4.70
2023-03-06T12:04:33.201Z,4.80
2023-03-06T12:07:15.474Z,4.90
2023-03-06T12:09:48.526Z,4.90
2023-03-06T12:12:40.214Z,4.90
2023-03-06T12:15:44.483Z,4.90
2023-03-06T12:18:16.964Z,4.90
2023-03-06T12:20:47.769Z,4.90
2023-03-06T12:23:40.132Z,5.00
2023-03-06T12:28:52.390Z,5.10
2023-03-06T12:33:56.235Z,5.10
2023-03-06T12:36:52.237Z,5.20
2023-03-06T12:39:50.317Z,5.20
2023-03-06T12:42:44.348Z,5.30
2023-03-06T12:45:25.482Z,5.30
2023-03-06T12:47:56.580Z,5.40
2023-03-06T12:50:36.965Z,5.50
2023-03-06T12:53:07.204Z,5.50
2023-03-06T12:55:41.587Z,5.50
2023-03-06T12:58:30.234Z,5.50
2023-03-06T13:01:20.040Z,5.60
2023-03-06T13:04:23.543Z,5.60
2023-03-06T13:09:32.036Z,5.60
2023-03-06T13:12:37.793Z,5.70
2023-03-06T13:15:29.243Z,5.70
2023-03-06T13:17:56.808Z,5.80
2023-03-06T13:27:53.311Z,5.90
2023-03-06T13:30:28.333Z,5.90
2023-03-06T13:32:56.122Z,6.00
2023-03-06T13:35:35.812Z,6.00
2023-03-06T13:40:34.998Z,5.90
2023-03-06T13:45:41.840Z,6.00
2023-03-06T13:48:45.757Z,6.10
2023-03-06T13:51:25.240Z,6.10
2023-03-06T13:54:29.583Z,6.10
2023-03-06T13:57:18.152Z,6.20
2023-03-06T14:00:15.594Z,6.10
2023-03-06T14:03:03.994Z,6.10
2023-03-06T14:05:48.586Z,6.10
2023-03-06T14:10:45.283Z,6.10
2023-03-06T14:13:26.620Z,6.10
2023-03-06T14:18:29.451Z,5.70
2023-03-06T14:21:03.448Z,5.70
2023-03-06T14:23:37.942Z,5.70
2023-03-06T14:26:19.922Z,5.70
2023-03-06T14:28:59.071Z,5.70
2023-03-06T14:31:35.917Z,5.80
2023-03-06T14:34:08.075Z,5.80
2023-03-06T14:36:36.294Z,5.80
2023-03-06T14:39:11.212Z,5.80
2023-03-06T14:41:38.677Z,5.80
2023-03-06T14:44:26.381Z,5.80
2023-03-06T14:46:55.560Z,5.90
2023-03-06T14:49:25.148Z,5.90
2023-03-06T14:51:55.081Z,5.90
2023-03-06T14:54:27.064Z,5.90
2023-03-06T14:56:59.886Z,5.90
2023-03-06T14:59:30.319Z,5.90
2023-03-06T15:02:01.325Z,6.00
2023-03-06T15:04:53.016Z,6.00
2023-03-06T15:07:24.902Z,6.00
2023-03-06T15:09:53.712Z,6.00
2023-03-06T15:15:01.553Z,6.10
2023-03-06T15:17:29.406Z,6.10
2023-03-06T15:19:59.157Z,6.10
2023-03-06T15:24:54.065Z,6.20
2023-03-06T15:27:28.814Z,6.40
2023-03-06T15:30:22.138Z,6.20
2023-03-06T15:32:48.712Z,6.20
2023-03-06T15:35:24.550Z,6.20
2023-03-06T15:37:52.337Z,6.10
2023-03-06T15:40:24.694Z,6.10
2023-03-06T15:45:23.437Z,6.00
2023-03-06T15:47:52.914Z,6.00
2023-03-06T15:50:23.742Z,6.10
2023-03-06T15:52:50.790Z,6.10
2023-03-06T15:55:22.371Z,6.00
2023-03-06T15:57:55.293Z,6.00
2023-03-06T16:00:28.706Z,5.90
2023-03-06T16:02:59.072Z,6.00
2023-03-06T16:05:26.615Z,6.00
2023-03-06T16:07:53.481Z,6.00
2023-03-06T16:10:23.790Z,6.00
2023-03-06T16:12:54.207Z,6.00
2023-03-06T16:15:28.800Z,6.00
2023-03-06T16:17:56.982Z,5.90
2023-03-06T16:20:29.115Z,5.90
2023-03-06T16:22:56.433Z,5.90
2023-03-06T16:25:25.943Z,5.80
2023-03-06T16:27:58.433Z,5.90
2023-03-06T16:30:28.865Z,5.80
2023-03-06T16:35:23.366Z,5.70
2023-03-06T16:37:50.392Z,5.60
2023-03-06T16:40:22.094Z,5.60
2023-03-06T16:42:50.555Z,5.60
2023-03-06T16:45:18.911Z,5.50
2023-03-06T16:47:46.936Z,5.60
2023-03-06T16:50:27.210Z,5.50
2023-03-06T16:52:55.653Z,5.40
2023-03-06T16:55:23.910Z,5.40
2023-03-06T17:00:19.326Z,5.30
2023-03-06T17:02:49.114Z,5.20
2023-03-06T17:05:16.315Z,5.10
2023-03-06T17:10:13.446Z,5.00
2023-03-06T17:15:08.596Z,5.00
2023-03-06T17:20:05.386Z,5.00
2023-03-06T17:22:36.449Z,5.00
2023-03-06T17:25:06.715Z,4.90
2023-03-06T17:32:28.415Z,5.00
2023-03-06T17:39:49.715Z,4.90
2023-03-06T17:44:43.458Z,4.80
2023-03-06T17:47:10.223Z,4.70
2023-03-06T17:57:03.282Z,4.50
2023-03-06T17:59:31.886Z,4.50
2023-03-06T18:01:59.276Z,4.50
2023-03-06T18:09:20.488Z,4.40
2023-03-06T18:14:14.272Z,4.40
2023-03-06T18:19:11.137Z,4.30
2023-03-06T18:21:39.054Z,4.30
2023-03-06T18:29:03.645Z,4.20
2023-03-06T18:31:34.658Z,4.20
2023-03-06T18:34:04.959Z,4.10
2023-03-06T18:36:33.009Z,4.10
2023-03-06T18:39:03.509Z,4.00
2023-03-06T18:41:31.218Z,4.00
2023-03-06T18:43:59.887Z,4.00
2023-03-06T18:46:30.342Z,4.00
2023-03-06T18:56:20.714Z,4.10
2023-03-06T19:01:15.029Z,4.10
2023-03-06T19:06:11.439Z,4.10
2023-03-06T19:08:39.412Z,4.00
2023-03-06T19:11:08.696Z,4.00
2023-03-06T19:21:08.486Z,3.80
2023-03-06T19:30:56.961Z,3.70
2023-03-06T19:35:50.856Z,3.60
2023-03-06T19:40:51.016Z,3.50
2023-03-06T19:45:44.861Z,3.50
2023-03-06T19:50:42.014Z,3.50
2023-03-06T20:12:47.879Z,3.40
2023-03-06T20:20:10.293Z,3.50
2023-03-06T20:59:25.326Z,3.50
2023-03-06T21:06:47.234Z,3.40
2023-03-06T21:09:16.565Z,3.40
2023-03-06T21:11:43.439Z,3.40
2023-03-06T21:14:12.217Z,3.40
2023-03-06T21:16:39.216Z,3.40
2023-03-06T21:21:35.099Z,3.40
2023-03-06T21:24:02.468Z,3.40
2023-03-06T21:26:31.015Z,3.40
2023-03-06T21:29:00.978Z,3.40
2023-03-06T21:31:28.715Z,3.40
2023-03-06T21:33:56.537Z,3.40
2023-03-06T21:36:23.384Z,3.40
2023-03-06T21:38:51.799Z,3.40
2023-03-06T21:41:25.042Z,3.40
2023-03-06T21:43:56.810Z,3.40
2023-03-06T21:51:19.656Z,3.40
2023-03-06T21:53:47.649Z,3.40
2023-03-06T21:56:17.045Z,3.40
2023-03-06T22:01:34.646Z,3.50
2023-03-06T22:04:01.522Z,3.50
2023-03-06T22:06:31.258Z,3.40
2023-03-06T22:08:59.497Z,3.50
2023-03-06T22:11:28.151Z,3.50
2023-03-06T22:18:51.258Z,3.50
2023-03-06T22:21:20.644Z,3.50
2023-03-06T22:23:52.139Z,3.50
2023-03-06T22:26:19.682Z,3.50
2023-03-06T22:31:17.090Z,3.50
2023-03-06T22:33:44.306Z,3.40
2023-03-06T22:36:14.193Z,3.40
2023-03-06T22:38:43.731Z,3.40
2023-03-06T22:41:11.924Z,3.40
2023-03-06T22:43:38.845Z,3.40
2023-03-06T22:46:11.110Z,3.40
2023-03-06T22:48:38.276Z,3.40
2023-03-06T22:51:07.520Z,3.40
2023-03-06T22:53:34.298Z,3.30
2023-03-06T22:56:02.380Z,3.30
2023-03-06T22:58:34.405Z,3.40
2023-03-06T23:01:05.844Z,3.50
2023-03-06T23:16:25.541Z,3.30
2023-03-06T23:19:11.356Z,3.50
2023-03-06T23:36:57.591Z,3.40
2023-03-06T23:49:12.935Z,3.30
